sensor_id;sensor_type;location;lat;lon;timestamp;pressure;altitude;pressure_sealevel;temperature;humidity
14253;BME280;7210;51.502;10.722;2023-05-02T00:01:01;99576.00;;;11.18;93.77
14253;BME280;7210;51.502;10.722;2023-05-02T00:03:30;99581.28;;;11.18;93.79
14253;BME280;7210;51.502;10.722;2023-05-02T00:05:58;99594.66;;;11.23;93.98
14253;BME280;7210;51.502;10.722;2023-05-02T00:08:26;99593.59;;;11.24;94.05
14253;BME280;7210;51.502;10.722;2023-05-02T00:10:53;99584.41;;;11.26;93.83
14253;BME280;7210;51.502;10.722;2023-05-02T00:13:26;99588.53;;;11.34;93.80
14253;BME280;7210;51.502;10.722;2023-05-02T00:15:53;99601.31;;;11.37;93.66
14253;BME280;7210;51.502;10.722;2023-05-02T00:18:24;99594.84;;;11.33;93.64
14253;BME280;7210;51.502;10.722;2023-05-02T00:20:52;99587.19;;;11.31;93.42
14253;BME280;7210;51.502;10.722;2023-05-02T00:23:19;99605.44;;;11.33;93.61
14253;BME280;7210;51.502;10.722;2023-05-02T00:25:46;99609.69;;;11.34;93.53
14253;BME280;7210;51.502;10.722;2023-05-02T00:28:13;99606.63;;;11.37;93.32
14253;BME280;7210;51.502;10.722;2023-05-02T00:30:45;99605.69;;;11.43;93.25
14253;BME280;7210;51.502;10.722;2023-05-02T00:33:19;99599.81;;;11.41;93.24
14253;BME280;7210;51.502;10.722;2023-05-02T00:35:46;99607.31;;;11.44;93.06
14253;BME280;7210;51.502;10.722;2023-05-02T00:38:13;99600.63;;;11.41;92.83
14253;BME280;7210;51.502;10.722;2023-05-02T00:40:45;99600.84;;;11.40;92.83
14253;BME280;7210;51.502;10.722;2023-05-02T00:43:13;99607.41;;;11.37;92.55
14253;BME280;7210;51.502;10.722;2023-05-02T00:45:42;99605.44;;;11.33;92.57
14253;BME280;7210;51.502;10.722;2023-05-02T00:48:13;99613.38;;;11.33;92.81
14253;BME280;7210;51.502;10.722;2023-05-02T00:50:42;99613.88;;;11.30;92.78
14253;BME280;7210;51.502;10.722;2023-05-02T00:53:10;99621.94;;;11.35;92.85
14253;BME280;7210;51.502;10.722;2023-05-02T00:55:37;99629.88;;;11.35;93.00
14253;BME280;7210;51.502;10.722;2023-05-02T00:58:10;99626.41;;;11.34;92.95
14253;BME280;7210;51.502;10.722;2023-05-02T01:00:59;99618.59;;;11.28;92.79
14253;BME280;7210;51.502;10.722;2023-05-02T01:03:40;99637.22;;;11.33;93.24
14253;BME280;7210;51.502;10.722;2023-05-02T01:06:29;99624.31;;;11.25;93.27
14253;BME280;7210;51.502;10.722;2023-05-02T01:09:11;99634.91;;;11.25;93.66
14253;BME280;7210;51.502;10.722;2023-05-02T01:11:51;99633.78;;;11.21;93.82
14253;BME280;7210;51.502;10.722;2023-05-02T01:14:21;99631.81;;;11.17;93.88
14253;BME280;7210;51.502;10.722;2023-05-02T01:16:52;99639.16;;;11.14;94.16
14253;BME280;7210;51.502;10.722;2023-05-02T01:19:30;99642.75;;;11.20;94.34
14253;BME280;7210;51.502;10.722;2023-05-02T01:22:01;99643.19;;;11.17;94.55
14253;BME280;7210;51.502;10.722;2023-05-02T01:24:36;99661.84;;;11.22;94.49
14253;BME280;7210;51.502;10.722;2023-05-02T01:27:17;99667.13;;;11.22;94.69
14253;BME280;7210;51.502;10.722;2023-05-02T01:29:51;99671.97;;;11.25;94.87
14253;BME280;7210;51.502;10.722;2023-05-02T01:32:21;99669.78;;;11.22;95.23
14253;BME280;7210;51.502;10.722;2023-05-02T01:34:51;99671.03;;;11.19;95.54
14253;BME280;7210;51.502;10.722;2023-05-02T01:37:23;99677.25;;;11.25;95.70
14253;BME280;7210;51.502;10.722;2023-05-02T01:39:53;99684.16;;;11.26;95.83
14253;BME280;7210;51.502;10.722;2023-05-02T01:42:22;99682.91;;;11.28;95.94
14253;BME280;7210;51.502;10.722;2023-05-02T01:44:58;99687.97;;;11.30;96.09
14253;BME280;7210;51.502;10.722;2023-05-02T01:47:28;99680.47;;;11.27;96.05
14253;BME280;7210;51.502;10.722;2023-05-02T01:49:59;99684.63;;;11.23;96.17
14253;BME280;7210;51.502;10.722;2023-05-02T01:52:28;99678.75;;;11.21;96.30
14253;BME280;7210;51.502;10.722;2023-05-02T01:55:01;99684.84;;;11.21;96.43
14253;BME280;7210;51.502;10.722;2023-05-02T01:57:31;99691.03;;;11.15;96.87
14253;BME280;7210;51.502;10.722;2023-05-02T02:00:02;99688.06;;;11.12;96.93
14253;BME280;7210;51.502;10.722;2023-05-02T02:02:41;99694.63;;;11.10;97.15
14253;BME280;7210;51.502;10.722;2023-05-02T02:06:11;99696.66;;;11.07;97.44
14253;BME280;7210;51.502;10.722;2023-05-02T02:08:39;99701.16;;;11.07;97.66
14253;BME280;7210;51.502;10.722;2023-05-02T02:11:10;99694.69;;;11.03;97.93
14253;BME280;7210;51.502;10.722;2023-05-02T02:17:03;99704.28;;;11.04;98.27
14253;BME280;7210;51.502;10.722;2023-05-02T02:19:33;99703.47;;;11.04;98.45
14253;BME280;7210;51.502;10.722;2023-05-02T02:22:04;99696.34;;;11.04;98.55
14253;BME280;7210;51.502;10.722;2023-05-02T02:24:35;99699.56;;;11.06;98.46
14253;BME280;7210;51.502;10.722;2023-05-02T02:27:04;99695.53;;;11.04;98.44
14253;BME280;7210;51.502;10.722;2023-05-02T02:29:33;99694.34;;;11.00;98.57
14253;BME280;7210;51.502;10.722;2023-05-02T02:32:02;99691.34;;;10.96;98.65
14253;BME280;7210;51.502;10.722;2023-05-02T02:34:29;99683.75;;;10.88;98.79
14253;BME280;7210;51.502;10.722;2023-05-02T02:37:00;99686.38;;;10.88;99.08
14253;BME280;7210;51.502;10.722;2023-05-02T02:39:45;99683.50;;;10.78;99.29
14253;BME280;7210;51.502;10.722;2023-05-02T02:42:31;99693.13;;;10.73;99.43
14253;BME280;7210;51.502;10.722;2023-05-02T02:45:16;99685.41;;;10.71;99.80
14253;BME280;7210;51.502;10.722;2023-05-02T02:47:52;99693.44;;;10.65;100.00
14253;BME280;7210;51.502;10.722;2023-05-02T02:50:31;99692.94;;;10.56;100.00
14253;BME280;7210;51.502;10.722;2023-05-02T02:53:04;99684.91;;;10.51;100.00
14253;BME280;7210;51.502;10.722;2023-05-02T02:55:43;99699.84;;;10.57;100.00
14253;BME280;7210;51.502;10.722;2023-05-02T02:58:29;99702.06;;;10.60;100.00
14253;BME280;7210;51.502;10.722;2023-05-02T03:01:02;99690.19;;;10.51;100.00
14253;BME280;7210;51.502;10.722;2023-05-02T03:03:34;99710.06;;;10.54;100.00
14253;BME280;7210;51.502;10.722;2023-05-02T03:06:03;99712.38;;;10.50;100.00
14253;BME280;7210;51.502;10.722;2023-05-02T03:08:38;99714.19;;;10.50;100.00
14253;BME280;7210;51.502;10.722;2023-05-02T03:11:08;99711.41;;;10.45;100.00
14253;BME280;7210;51.502;10.722;2023-05-02T03:13:36;99714.28;;;10.43;100.00
14253;BME280;7210;51.502;10.722;2023-05-02T03:16:33;99720.81;;;10.41;100.00
14253;BME280;7210;51.502;10.722;2023-05-02T03:19:04;99711.94;;;10.35;100.00
14253;BME280;7210;51.502;10.722;2023-05-02T03:21:32;99722.63;;;10.40;100.00
14253;BME280;7210;51.502;10.722;2023-05-02T03:24:06;99722.28;;;10.37;100.00
14253;BME280;7210;51.502;10.722;2023-05-02T03:26:34;99739.88;;;10.43;100.00
14253;BME280;7210;51.502;10.722;2023-05-02T03:29:02;99742.09;;;10.46;100.00
14253;BME280;7210;51.502;10.722;2023-05-02T03:31:35;99738.66;;;10.45;100.00
14253;BME280;7210;51.502;10.722;2023-05-02T03:34:06;99739.81;;;10.49;100.00
14253;BME280;7210;51.502;10.722;2023-05-02T03:36:35;99740.84;;;10.48;100.00
14253;BME280;7210;51.502;10.722;2023-05-02T03:39:02;99741.66;;;10.49;100.00
14253;BME280;7210;51.502;10.722;2023-05-02T03:41:29;99748.34;;;10.51;100.00
14253;BME280;7210;51.502;10.722;2023-05-02T03:44:04;99746.28;;;10.53;100.00
14253;BME280;7210;51.502;10.722;2023-05-02T03:46:31;99743.16;;;10.56;100.00
14253;BME280;7210;51.502;10.722;2023-05-02T03:48:59;99742.97;;;10.58;100.00
14253;BME280;7210;51.502;10.722;2023-05-02T03:51:28;99745.38;;;10.59;100.00
14253;BME280;7210;51.502;10.722;2023-05-02T03:53:59;99738.84;;;10.62;100.00
14253;BME280;7210;51.502;10.722;2023-05-02T03:56:26;99740.88;;;10.60;100.00
14253;BME280;7210;51.502;10.722;2023-05-02T03:59:14;99734.34;;;10.62;100.00
14253;BME280;7210;51.502;10.722;2023-05-02T04:01:42;99733.22;;;10.58;100.00
14253;BME280;7210;51.502;10.722;2023-05-02T04:04:12;99741.72;;;10.60;100.00
14253;BME280;7210;51.502;10.722;2023-05-02T04:06:47;99746.19;;;10.60;100.00
14253;BME280;7210;51.502;10.722;2023-05-02T04:09:15;99746.44;;;10.58;100.00
14253;BME280;7210;51.502;10.722;2023-05-02T04:11:54;99752.28;;;10.60;100.00
14253;BME280;7210;51.502;10.722;2023-05-02T04:14:22;99749.44;;;10.62;100.00
14253;BME280;7210;51.502;10.722;2023-05-02T04:16:52;99766.34;;;10.72;100.00
14253;BME280;7210;51.502;10.722;2023-05-02T04:19:33;99764.31;;;10.74;100.00
14253;BME280;7210;51.502;10.722;2023-05-02T04:22:02;99761.78;;;10.79;100.00
14253;BME280;7210;51.502;10.722;2023-05-02T04:24:33;99768.25;;;10.83;100.00
14253;BME280;7210;51.502;10.722;2023-05-02T04:27:01;99767.44;;;10.83;100.00
14253;BME280;7210;51.502;10.722;2023-05-02T04:29:29;99765.16;;;10.86;100.00
14253;BME280;7210;51.502;10.722;2023-05-02T04:31:57;99772.66;;;10.89;100.00
14253;BME280;7210;51.502;10.722;2023-05-02T04:34:27;99755.03;;;10.83;100.00
14253;BME280;7210;51.502;10.722;2023-05-02T04:36:54;99763.69;;;10.90;100.00
14253;BME280;7210;51.502;10.722;2023-05-02T04:39:25;99770.94;;;10.95;100.00
14253;BME280;7210;51.502;10.722;2023-05-02T04:42:00;99769.56;;;10.92;100.00
14253;BME280;7210;51.502;10.722;2023-05-02T04:44:31;99768.53;;;10.93;100.00
14253;BME280;7210;51.502;10.722;2023-05-02T04:47:07;99779.59;;;11.02;100.00
14253;BME280;7210;51.502;10.722;2023-05-02T04:49:34;99777.63;;;10.97;100.00
14253;BME280;7210;51.502;10.722;2023-05-02T04:52:06;99779.81;;;11.00;100.00
14253;BME280;7210;51.502;10.722;2023-05-02T04:54:35;99783.88;;;11.03;100.00
14253;BME280;7210;51.502;10.722;2023-05-02T04:57:02;99786.72;;;11.01;100.00
14253;BME280;7210;51.502;10.722;2023-05-02T04:59:35;99802.84;;;11.11;100.00
14253;BME280;7210;51.502;10.722;2023-05-02T05:02:03;99799.31;;;11.17;100.00
14253;BME280;7210;51.502;10.722;2023-05-02T05:04:30;99808.78;;;11.24;100.00
14253;BME280;7210;51.502;10.722;2023-05-02T05:06:58;99807.09;;;11.30;100.00
14253;BME280;7210;51.502;10.722;2023-05-02T05:09:27;99808.22;;;11.34;100.00
14253;BME280;7210;51.502;10.722;2023-05-02T05:11:55;99803.88;;;11.28;100.00
14253;BME280;7210;51.502;10.722;2023-05-02T05:14:23;99805.22;;;11.30;100.00
14253;BME280;7210;51.502;10.722;2023-05-02T05:16:53;99801.44;;;11.26;100.00
14253;BME280;7210;51.502;10.722;2023-05-02T05:19:22;99809.59;;;11.25;100.00
14253;BME280;7210;51.502;10.722;2023-05-02T05:21:54;99813.28;;;11.24;100.00
14253;BME280;7210;51.502;10.722;2023-05-02T05:24:22;99810.84;;;11.22;100.00
14253;BME280;7210;51.502;10.722;2023-05-02T05:26:52;99823.09;;;11.35;100.00
14253;BME280;7210;51.502;10.722;2023-05-02T05:29:21;99834.38;;;11.42;100.00
14253;BME280;7210;51.502;10.722;2023-05-02T05:31:54;99834.53;;;11.47;100.00
14253;BME280;7210;51.502;10.722;2023-05-02T05:34:22;99826.69;;;11.40;100.00
14253;BME280;7210;51.502;10.722;2023-05-02T05:36:51;99825.28;;;11.38;100.00
14253;BME280;7210;51.502;10.722;2023-05-02T05:39:24;99834.97;;;11.44;100.00
14253;BME280;7210;51.502;10.722;2023-05-02T05:41:54;99831.72;;;11.42;100.00
14253;BME280;7210;51.502;10.722;2023-05-02T05:44:24;99840.84;;;11.46;100.00
14253;BME280;7210;51.502;10.722;2023-05-02T05:46:51;99846.28;;;11.51;100.00
14253;BME280;7210;51.502;10.722;2023-05-02T05:49:21;99854.97;;;11.69;100.00
14253;BME280;7210;51.502;10.722;2023-05-02T05:51:49;99851.56;;;11.80;100.00
14253;BME280;7210;51.502;10.722;2023-05-02T05:54:17;99850.06;;;11.84;100.00
14253;BME280;7210;51.502;10.722;2023-05-02T05:56:44;99849.97;;;11.91;100.00
14253;BME280;7210;51.502;10.722;2023-05-02T05:59:15;99865.06;;;12.02;100.00
14253;BME280;7210;51.502;10.722;2023-05-02T06:01:44;99860.34;;;12.15;100.00
14253;BME280;7210;51.502;10.722;2023-05-02T06:04:13;99858.50;;;12.16;100.00
14253;BME280;7210;51.502;10.722;2023-05-02T06:06:44;99852.63;;;12.14;100.00
14253;BME280;7210;51.502;10.722;2023-05-02T06:09:12;99861.50;;;12.19;100.00
14253;BME280;7210;51.502;10.722;2023-05-02T06:11:39;99866.81;;;12.31;100.00
14253;BME280;7210;51.502;10.722;2023-05-02T06:14:07;99864.28;;;12.36;99.49
14253;BME280;7210;51.502;10.722;2023-05-02T06:16:34;99874.28;;;12.45;99.03
14253;BME280;7210;51.502;10.722;2023-05-02T06:19:08;99871.06;;;12.55;98.14
14253;BME280;7210;51.502;10.722;2023-05-02T06:21:35;99867.94;;;12.58;97.52
14253;BME280;7210;51.502;10.722;2023-05-02T06:24:06;99866.78;;;12.65;96.38
14253;BME280;7210;51.502;10.722;2023-05-02T06:26:33;99874.38;;;12.73;96.03
14253;BME280;7210;51.502;10.722;2023-05-02T06:29:00;99866.97;;;12.75;95.46
14253;BME280;7210;51.502;10.722;2023-05-02T06:31:28;99867.13;;;12.69;94.66
14253;BME280;7210;51.502;10.722;2023-05-02T06:33:55;99875.09;;;12.69;94.57
14253;BME280;7210;51.502;10.722;2023-05-02T06:36:24;99901.25;;;12.77;94.59
14253;BME280;7210;51.502;10.722;2023-05-02T06:38:54;99906.34;;;12.78;93.89
14253;BME280;7210;51.502;10.722;2023-05-02T06:41:21;99905.63;;;12.83;93.24
14253;BME280;7210;51.502;10.722;2023-05-02T06:43:48;99919.34;;;12.91;92.85
14253;BME280;7210;51.502;10.722;2023-05-02T06:46:15;99928.84;;;12.99;92.75
14253;BME280;7210;51.502;10.722;2023-05-02T06:48:43;99936.88;;;13.04;92.22
14253;BME280;7210;51.502;10.722;2023-05-02T06:51:13;99949.34;;;13.15;92.08
14253;BME280;7210;51.502;10.722;2023-05-02T06:53:42;99958.91;;;13.16;91.50
14253;BME280;7210;51.502;10.722;2023-05-02T06:56:09;99945.19;;;13.07;91.13
14253;BME280;7210;51.502;10.722;2023-05-02T06:58:36;99951.75;;;13.05;91.08
14253;BME280;7210;51.502;10.722;2023-05-02T07:01:04;99983.00;;;13.26;91.19
14253;BME280;7210;51.502;10.722;2023-05-02T07:03:31;99982.19;;;13.37;90.58
14253;BME280;7210;51.502;10.722;2023-05-02T07:05:58;99983.56;;;13.39;89.83
14253;BME280;7210;51.502;10.722;2023-05-02T07:08:25;99978.50;;;13.38;89.16
14253;BME280;7210;51.502;10.722;2023-05-02T07:10:53;99994.63;;;13.48;89.04
14253;BME280;7210;51.502;10.722;2023-05-02T07:13:21;100010.66;;;13.64;89.03
14253;BME280;7210;51.502;10.722;2023-05-02T07:15:48;100009.47;;;13.72;88.17
14253;BME280;7210;51.502;10.722;2023-05-02T07:18:15;100013.00;;;13.77;87.69
14253;BME280;7210;51.502;10.722;2023-05-02T07:20:42;100009.13;;;13.68;87.00
14253;BME280;7210;51.502;10.722;2023-05-02T07:23:09;100045.94;;;13.76;87.21
14253;BME280;7210;51.502;10.722;2023-05-02T07:25:36;100044.00;;;13.72;86.85
14253;BME280;7210;51.502;10.722;2023-05-02T07:28:06;100047.25;;;13.62;86.90
14253;BME280;7210;51.502;10.722;2023-05-02T07:30:34;100044.53;;;13.46;86.79
14253;BME280;7210;51.502;10.722;2023-05-02T07:33:01;100069.50;;;13.45;87.06
14253;BME280;7210;51.502;10.722;2023-05-02T07:35:28;100079.31;;;13.44;87.17
14253;BME280;7210;51.502;10.722;2023-05-02T07:37:55;100113.47;;;13.64;87.42
14253;BME280;7210;51.502;10.722;2023-05-02T07:40:22;100119.06;;;13.90;86.56
14253;BME280;7210;51.502;10.722;2023-05-02T07:42:50;100109.75;;;14.16;85.37
14253;BME280;7210;51.502;10.722;2023-05-02T07:45:18;100106.94;;;14.34;84.31
14253;BME280;7210;51.502;10.722;2023-05-02T07:47:46;100086.03;;;14.26;83.64
14253;BME280;7210;51.502;10.722;2023-05-02T07:50:13;100078.31;;;14.13;83.09
14253;BME280;7210;51.502;10.722;2023-05-02T07:52:40;100071.56;;;13.94;82.52
14253;BME280;7210;51.502;10.722;2023-05-02T07:55:08;100075.53;;;13.80;82.45
14253;BME280;7210;51.502;10.722;2023-05-02T07:57:35;100088.06;;;13.68;82.74
14253;BME280;7210;51.502;10.722;2023-05-02T08:00:04;100116.94;;;13.64;83.24
14253;BME280;7210;51.502;10.722;2023-05-02T08:02:42;100140.25;;;13.62;83.34
14253;BME280;7210;51.502;10.722;2023-05-02T08:05:10;100175.97;;;13.78;83.53
14253;BME280;7210;51.502;10.722;2023-05-02T08:07:37;100198.00;;;13.90;83.86
14253;BME280;7210;51.502;10.722;2023-05-02T08:10:06;100183.00;;;13.95;83.36
14253;BME280;7210;51.502;10.722;2023-05-02T08:12:37;100198.81;;;14.02;83.53
14253;BME280;7210;51.502;10.722;2023-05-02T08:15:07;100181.69;;;13.98;82.83
14253;BME280;7210;51.502;10.722;2023-05-02T08:17:35;100192.34;;;13.98;82.81
14253;BME280;7210;51.502;10.722;2023-05-02T08:20:05;100227.56;;;14.16;83.02
14253;BME280;7210;51.502;10.722;2023-05-02T08:22:32;100246.88;;;14.35;83.00
14253;BME280;7210;51.502;10.722;2023-05-02T08:24:59;100255.53;;;14.53;82.71
14253;BME280;7210;51.502;10.722;2023-05-02T08:27:27;100241.50;;;14.58;82.30
14253;BME280;7210;51.502;10.722;2023-05-02T08:29:54;100229.56;;;14.60;81.94
14253;BME280;7210;51.502;10.722;2023-05-02T08:32:21;100225.06;;;14.61;81.33
14253;BME280;7210;51.502;10.722;2023-05-02T08:34:48;100230.28;;;14.56;81.40
14253;BME280;7210;51.502;10.722;2023-05-02T08:37:17;100263.56;;;14.70;81.75
14253;BME280;7210;51.502;10.722;2023-05-02T08:39:44;100254.16;;;14.79;81.00
14253;BME280;7210;51.502;10.722;2023-05-02T08:42:11;100281.81;;;15.06;80.66
14253;BME280;7210;51.502;10.722;2023-05-02T08:44:39;100287.16;;;15.33;80.06
14253;BME280;7210;51.502;10.722;2023-05-02T08:47:12;100261.56;;;15.32;79.27
14253;BME280;7210;51.502;10.722;2023-05-02T08:49:41;100236.34;;;15.23;78.46
14253;BME280;7210;51.502;10.722;2023-05-02T08:52:08;100256.50;;;15.19;78.77
14253;BME280;7210;51.502;10.722;2023-05-02T08:54:39;100284.00;;;15.36;78.72
14253;BME280;7210;51.502;10.722;2023-05-02T08:57:07;100259.28;;;15.24;78.13
14253;BME280;7210;51.502;10.722;2023-05-02T08:59:34;100281.59;;;15.35;77.63
14253;BME280;7210;51.502;10.722;2023-05-02T09:02:23;100299.06;;;15.59;77.19
14253;BME280;7210;51.502;10.722;2023-05-02T09:05:05;100267.31;;;15.57;76.26
14253;BME280;7210;51.502;10.722;2023-05-02T09:07:45;100235.03;;;15.10;76.18
14253;BME280;7210;51.502;10.722;2023-05-02T09:10:14;100287.47;;;14.93;77.35
14253;BME280;7210;51.502;10.722;2023-05-02T09:12:42;100296.22;;;14.65;78.04
14253;BME280;7210;51.502;10.722;2023-05-02T09:15:11;100297.00;;;14.26;78.29
14253;BME280;7210;51.502;10.722;2023-05-02T09:17:41;100282.28;;;13.78;79.26
14253;BME280;7210;51.502;10.722;2023-05-02T09:20:10;100328.19;;;13.44;81.07
14253;BME280;7210;51.502;10.722;2023-05-02T09:22:37;100376.63;;;13.28;82.87
14253;BME280;7210;51.502;10.722;2023-05-02T09:25:06;100432.66;;;13.26;84.46
14253;BME280;7210;51.502;10.722;2023-05-02T09:27:51;100445.31;;;13.24;86.10
14253;BME280;7210;51.502;10.722;2023-05-02T09:30:21;100457.22;;;13.22;86.98
14253;BME280;7210;51.502;10.722;2023-05-02T09:32:50;100451.47;;;13.25;88.06
14253;BME280;7210;51.502;10.722;2023-05-02T09:35:20;100441.66;;;13.25;88.99
14253;BME280;7210;51.502;10.722;2023-05-02T09:37:54;100439.22;;;13.24;89.67
14253;BME280;7210;51.502;10.722;2023-05-02T09:40:22;100435.00;;;13.34;90.55
14253;BME280;7210;51.502;10.722;2023-05-02T09:42:51;100431.94;;;13.49;91.13
14253;BME280;7210;51.502;10.722;2023-05-02T09:45:23;100416.88;;;13.61;91.54
14253;BME280;7210;51.502;10.722;2023-05-02T09:47:52;100407.22;;;13.78;90.92
14253;BME280;7210;51.502;10.722;2023-05-02T09:50:35;100398.72;;;13.99;90.41
14253;BME280;7210;51.502;10.722;2023-05-02T09:53:07;100377.31;;;13.94;89.87
14253;BME280;7210;51.502;10.722;2023-05-02T09:55:36;100336.44;;;13.54;89.21
14253;BME280;7210;51.502;10.722;2023-05-02T09:58:20;100359.38;;;13.37;90.22
14253;BME280;7210;51.502;10.722;2023-05-02T10:00:49;100368.97;;;13.20;91.25
14253;BME280;7210;51.502;10.722;2023-05-02T10:03:18;100389.66;;;13.18;92.07
14253;BME280;7210;51.502;10.722;2023-05-02T10:05:46;100394.75;;;13.19;92.48
14253;BME280;7210;51.502;10.722;2023-05-02T10:08:15;100392.94;;;13.31;92.54
14253;BME280;7210;51.502;10.722;2023-05-02T10:10:48;100386.63;;;13.44;92.09
14253;BME280;7210;51.502;10.722;2023-05-02T10:13:20;100367.34;;;13.37;92.18
14253;BME280;7210;51.502;10.722;2023-05-02T10:15:57;100352.63;;;13.23;91.31
14253;BME280;7210;51.502;10.722;2023-05-02T10:18:38;100341.84;;;13.18;91.09
14253;BME280;7210;51.502;10.722;2023-05-02T10:21:09;100340.75;;;13.25;91.03
14253;BME280;7210;51.502;10.722;2023-05-02T10:23:41;100336.38;;;13.13;90.38
14253;BME280;7210;51.502;10.722;2023-05-02T10:26:15;100331.19;;;13.06;90.45
14253;BME280;7210;51.502;10.722;2023-05-02T10:28:44;100310.16;;;12.87;90.08
14253;BME280;7210;51.502;10.722;2023-05-02T10:31:13;100309.97;;;12.88;90.16
14253;BME280;7210;51.502;10.722;2023-05-02T10:33:41;100340.66;;;13.02;90.34
14253;BME280;7210;51.502;10.722;2023-05-02T10:36:10;100360.28;;;13.31;90.73
14253;BME280;7210;51.502;10.722;2023-05-02T10:38:39;100369.47;;;13.58;90.32
14253;BME280;7210;51.502;10.722;2023-05-02T10:41:12;100381.00;;;13.93;89.78
14253;BME280;7210;51.502;10.722;2023-05-02T10:43:46;100346.69;;;14.03;88.79
14253;BME280;7210;51.502;10.722;2023-05-02T10:46:29;100338.22;;;14.06;88.10
14253;BME280;7210;51.502;10.722;2023-05-02T10:49:03;100337.44;;;14.17;87.52
14253;BME280;7210;51.502;10.722;2023-05-02T10:51:31;100346.25;;;14.40;87.29
14253;BME280;7210;51.502;10.722;2023-05-02T10:54:19;100334.19;;;14.61;85.98
14253;BME280;7210;51.502;10.722;2023-05-02T10:57:05;100304.06;;;14.72;84.48
14253;BME280;7210;51.502;10.722;2023-05-02T10:59:36;100258.31;;;14.47;83.29
14253;BME280;7210;51.502;10.722;2023-05-02T11:02:53;100251.13;;;14.47;81.92
14253;BME280;7210;51.502;10.722;2023-05-02T11:05:21;100233.31;;;14.48;80.81
14253;BME280;7210;51.502;10.722;2023-05-02T11:07:49;100210.13;;;14.32;79.35
14253;BME280;7210;51.502;10.722;2023-05-02T11:10:26;100227.56;;;14.39;78.64
14253;BME280;7210;51.502;10.722;2023-05-02T11:12:55;100282.66;;;14.67;78.84
14253;BME280;7210;51.502;10.722;2023-05-02T11:15:55;100293.44;;;15.00;77.35
14253;BME280;7210;51.502;10.722;2023-05-02T11:18:25;100288.16;;;15.16;76.56
14253;BME280;7210;51.502;10.722;2023-05-02T11:21:26;100243.53;;;14.95;75.24
14253;BME280;7210;51.502;10.722;2023-05-02T11:24:38;100285.34;;;14.95;75.39
14253;BME280;7210;51.502;10.722;2023-05-02T11:27:36;100309.78;;;15.19;74.78
14253;BME280;7210;51.502;10.722;2023-05-02T11:30:06;100349.13;;;15.40;74.49
14253;BME280;7210;51.502;10.722;2023-05-02T11:33:18;100332.19;;;15.63;73.03
14253;BME280;7210;51.502;10.722;2023-05-02T11:35:46;100364.47;;;15.94;72.40
14253;BME280;7210;51.502;10.722;2023-05-02T11:38:17;100342.56;;;15.92;71.42
14253;BME280;7210;51.502;10.722;2023-05-02T11:40:56;100364.53;;;15.99;71.23
14253;BME280;7210;51.502;10.722;2023-05-02T11:43:26;100343.44;;;15.81;70.71
14253;BME280;7210;51.502;10.722;2023-05-02T11:45:55;100400.13;;;16.05;70.76
14253;BME280;7210;51.502;10.722;2023-05-02T11:48:26;100394.38;;;16.13;69.84
14253;BME280;7210;51.502;10.722;2023-05-02T11:50:56;100383.94;;;15.95;69.97
14253;BME280;7210;51.502;10.722;2023-05-02T11:53:25;100387.72;;;15.82;69.61
14253;BME280;7210;51.502;10.722;2023-05-02T11:55:56;100492.28;;;16.12;70.62
14253;BME280;7210;51.502;10.722;2023-05-02T11:58:26;100470.66;;;16.42;69.00
14253;BME280;7210;51.502;10.722;2023-05-02T12:00:54;100405.28;;;16.44;67.31
14253;BME280;7210;51.502;10.722;2023-05-02T12:03:27;100400.59;;;16.18;67.41
14253;BME280;7210;51.502;10.722;2023-05-02T12:05:55;100363.66;;;16.10;66.29
14253;BME280;7210;51.502;10.722;2023-05-02T12:08:25;100317.66;;;16.03;64.56
14253;BME280;7210;51.502;10.722;2023-05-02T12:10:54;100331.06;;;16.08;63.93
14253;BME280;7210;51.502;10.722;2023-05-02T12:13:24;100391.63;;;16.24;64.12
14253;BME280;7210;51.502;10.722;2023-05-02T12:15:53;100350.78;;;16.40;62.08
14253;BME280;7210;51.502;10.722;2023-05-02T12:18:23;100423.94;;;16.39;63.26
14253;BME280;7210;51.502;10.722;2023-05-02T12:20:54;100469.50;;;16.21;64.32
14253;BME280;7210;51.502;10.722;2023-05-02T12:23:24;100517.47;;;16.16;65.15
14253;BME280;7210;51.502;10.722;2023-05-02T12:25:52;100487.63;;;16.19;64.09
14253;BME280;7210;51.502;10.722;2023-05-02T12:28:20;100466.38;;;15.96;64.58
14253;BME280;7210;51.502;10.722;2023-05-02T12:30:50;100430.81;;;15.46;64.99
14253;BME280;7210;51.502;10.722;2023-05-02T12:33:18;100586.03;;;15.65;66.67
14253;BME280;7210;51.502;10.722;2023-05-02T12:35:45;100551.34;;;15.76;65.46
14253;BME280;7210;51.502;10.722;2023-05-02T12:38:17;100473.66;;;15.56;64.55
14253;BME280;7210;51.502;10.722;2023-05-02T12:40:51;100462.81;;;15.35;64.71
14253;BME280;7210;51.502;10.722;2023-05-02T12:43:19;100458.63;;;15.39;64.23
14253;BME280;7210;51.502;10.722;2023-05-02T12:45:47;100501.59;;;15.42;64.32
14253;BME280;7210;51.502;10.722;2023-05-02T12:48:23;100561.78;;;15.78;64.13
14253;BME280;7210;51.502;10.722;2023-05-02T12:50:52;100527.09;;;15.89;63.52
14253;BME280;7210;51.502;10.722;2023-05-02T12:53:40;100590.88;;;16.19;63.62
14253;BME280;7210;51.502;10.722;2023-05-02T12:56:09;100558.16;;;16.23;63.21
14253;BME280;7210;51.502;10.722;2023-05-02T12:58:41;100444.78;;;15.81;62.41
14253;BME280;7210;51.502;10.722;2023-05-02T13:01:09;100421.84;;;15.52;62.07
14253;BME280;7210;51.502;10.722;2023-05-02T13:03:37;100491.88;;;15.36;63.14
14253;BME280;7210;51.502;10.722;2023-05-02T13:06:05;100474.22;;;15.08;63.26
14253;BME280;7210;51.502;10.722;2023-05-02T13:08:33;100441.59;;;14.78;63.55
14253;BME280;7210;51.502;10.722;2023-05-02T13:11:02;100457.91;;;14.70;63.70
14253;BME280;7210;51.502;10.722;2023-05-02T13:13:30;100461.84;;;14.56;63.99
14253;BME280;7210;51.502;10.722;2023-05-02T13:16:00;100526.88;;;14.60;64.33
14253;BME280;7210;51.502;10.722;2023-05-02T13:18:27;100520.28;;;14.62;63.92